Latest Weather Observations for Double Island Point

IDQ60801

Issued at 7:32 am EST Thursday 21 September 2017 (issued every 30 minutes, with the page automatically refreshed every 10 minutes)

About weather observations | Map of weather stations | Latest weather observations for QLD | Other Formats
Station Details ID: 040068 Name: DOUBLE ISLAND POINT LIGHTHOUSE Lat: -25.93 Lon: 153.19 Height: 95.64 m
Data from the previous 72 hours. | See also: Recent months at Double Island Point
Date/Time
EST
Temp
°C
App
Temp
°C
Dew
Point
°C
Rel
Hum
%
Delta-T
°C
Wind Press
QNH
hPa
Press
MSL
hPa
Rain since
9am
mm
Dir  Spd
km/h
Gust
km/h
Spd
kts
Gust
kts
21/07:30am 21.1 19.3 16.9 77 2.6 E 22 24 12 13 1019.5 1019.2 0.0
21/07:00am 20.7 19.3 16.9 79 2.3 E 20 24 11 13 1019.3 1019.0 0.0
21/06:30am 20.5 18.7 16.9 80 2.2 ESE 22 26 12 14 1018.9 1018.6 0.0
21/06:00am 20.2 18.3 16.6 80 2.2 ESE 22 24 12 13 1018.6 1018.3 0.0
21/05:30am 20.3 18.0 16.7 80 2.2 ESE 24 28 13 15 1018.1 1017.8 0.0
21/05:00am 20.2 18.5 16.2 78 2.4 E 20 24 11 13 1017.9 1017.6 0.0
21/04:30am 20.3 18.2 16.3 78 2.4 ESE 22 24 12 13 1017.5 1017.2 0.0
21/04:00am 20.0 17.9 16.2 79 2.3 ESE 22 26 12 14 1017.3 1017.0 0.0
21/03:30am 19.8 17.4 16.3 80 2.1 ESE 24 28 13 15 1016.9 1016.6 0.0
21/03:00am 19.8 16.6 16.4 81 2.0 E 28 32 15 17 1016.6 1016.3 0.0
21/02:30am 19.8 17.1 16.6 82 1.9 ESE 26 30 14 16 1016.9 1016.6 0.0
21/02:00am 19.9 16.9 16.7 82 1.9 ESE 28 32 15 17 1017.1 1016.8 0.0
21/01:30am 19.9 17.2 16.5 81 2.1 ESE 26 30 14 16 1017.3 1017.0 0.0
21/01:00am 20.1 17.7 16.3 79 2.3 ESE 24 28 13 15 1017.6 1017.3 0.0
21/12:30am 20.2 18.6 16.4 79 2.3 ESE 20 24 11 13 1018.1 1017.8 0.0
21/12:00am 20.2 18.3 16.6 80 2.2 SE 22 26 12 14 1018.2 1017.9 0.0
 
Date/Time
EST
Temp
°C
App
Temp
°C
Dew
Point
°C
Rel
Hum
%
Delta-T
°C
Wind Press
QNH
hPa
Press
MSL
hPa
Rain since
9am
mm
Dir  Spd
km/h
Gust
km/h
Spd
kts
Gust
kts
20/11:30pm 20.1 18.2 16.7 81 2.1 ESE 22 26 12 14 1018.1 1017.8 0.0
20/11:00pm 20.2 18.3 16.6 80 2.2 SE 22 26 12 14 1018.5 1018.2 0.0
20/10:30pm 20.2 18.7 16.8 81 2.1 ESE 20 24 11 13 1018.3 1018.0 0.0
20/10:00pm 20.2 18.8 17.0 82 1.9 ESE 20 24 11 13 1018.2 1017.9 0.0
20/09:30pm 20.2 18.3 16.8 81 2.1 ESE 22 24 12 13 1018.3 1018.0 0.0
20/09:00pm 20.2 18.3 16.6 80 2.2 ESE 22 26 12 14 1018.1 1017.8 0.0
20/08:30pm 20.3 18.9 16.9 81 2.1 ESE 20 26 11 14 1017.9 1017.6 0.0
20/08:00pm 20.5 18.8 17.1 81 2.1 ESE 22 24 12 13 1017.9 1017.6 0.0
20/07:30pm 20.4 18.9 17.6 84 1.7 SE 22 26 12 14 1017.6 1017.3 0.0
20/07:00pm 20.3 18.3 17.3 83 1.8 SE 24 26 13 14 1017.3 1017.0 0.0
20/06:30pm 20.3 17.5 17.3 83 1.8 SE 28 32 15 17 1016.8 1016.5 0.0
20/06:00pm 20.2 16.9 17.0 82 2.0 SE 30 35 16 19 1016.1 1015.8 0.0
20/05:30pm 20.2 16.8 16.8 81 2.1 SE 30 35 16 19 1015.6 1015.3 0.0
20/05:00pm 20.4 17.0 16.8 80 2.2 SE 30 37 16 20 1015.3 1015.0 0.0
20/04:30pm 20.5 16.3 16.3 77 2.5 SE 33 41 18 22 1015.1 1014.8 0.0
20/04:00pm 20.8 16.9 16.4 76 2.7 SE 32 35 17 19 1015.4 1015.1 0.0
20/03:30pm 21.2 18.1 16.6 75 2.8 SE 28 33 15 18 1015.4 1015.1 0.0
20/03:00pm 21.5 17.6 16.5 73 3.0 SE 32 35 17 19 1015.3 1015.0 0.0
20/02:30pm 21.5 17.7 16.7 74 2.9 SSE 32 35 17 19 1015.6 1015.3 0.0
20/02:00pm 21.5 17.3 17.1 76 2.7 SSE 35 39 19 21 1015.8 1015.5 0.0
20/01:30pm 21.8 17.7 17.4 76 2.7 SSE 35 39 19 21 1016.3 1016.0 0.0
20/01:00pm 21.9 17.1 17.5 76 2.7 SSE 39 43 21 23 1016.7 1016.4 0.0
20/12:30pm 21.7 17.3 17.5 77 2.6 SSE 37 44 20 24 1017.2 1016.9 0.0
20/12:00pm 21.2 16.7 17.4 79 2.3 SSE 37 46 20 25 1017.4 1017.1 0.0
20/11:30am 21.8 17.6 18.0 79 2.4 S 37 50 20 27 1017.7 1017.4 0.0
20/11:00am 21.8 16.7 17.8 78 2.5 SSE 41 48 22 26 1018.0 1017.7 0.0
20/10:30am 22.0 17.5 18.2 79 2.4 SSE 39 46 21 25 1018.3 1018.0 0.0
20/10:00am 22.3 19.5 17.4 74 3.0 S 28 35 15 19 1018.8 1018.5 0.0
20/09:30am 21.4 18.6 17.4 78 2.5 S 28 35 15 19 1019.0 1018.7 0.0
20/09:00am 20.7 17.2 17.5 82 2.0 S 32 39 17 21 1019.1 1018.8 0.0
20/08:30am 20.9 18.6 15.7 72 3.1 SSW 22 32 12 17 1019.1 1018.8 0.0
20/08:00am 20.2 19.6 15.6 75 2.7 NW 13 17 7 9 1019.0 1018.7 0.0
20/07:30am 19.5 19.3 15.8 79 2.2 W 11 19 6 10 1019.1 1018.8 0.0
20/07:00am 18.1 15.7 15.5 85 1.5 WNW 22 30 12 16 1018.4 1018.1 0.0
20/06:30am 18.1 14.6 15.5 85 1.5 NNW 28 32 15 17 1017.1 1016.8 0.0
20/06:00am 18.1 15.7 15.4 84 1.6 NW 22 30 12 16 1017.1 1016.8 0.0
20/05:30am 18.3 15.9 15.4 83 1.7 NW 22 32 12 17 1016.7 1016.4 0.0
20/05:00am 18.3 14.8 15.6 84 1.6 NW 28 37 15 20 1016.3 1016.0 0.0
20/04:30am 18.3 14.5 15.7 85 1.5 NW 30 37 16 20 1016.2 1015.9 0.0
20/04:00am 18.5 15.0 15.6 83 1.7 NW 28 37 15 20 1016.0 1015.7 0.0
20/03:30am 19.0 13.8 15.5 80 2.1 NW 37 46 20 25 1015.8 1015.5 0.0
20/03:00am 19.4 14.7 15.9 80 2.1 NW 35 46 19 25 1015.9 1015.6 0.0
20/02:30am 19.1 14.9 16.3 84 1.7 NW 33 48 18 26 1016.3 1016.0 0.0
20/02:00am 18.5 14.4 15.9 85 1.5 NW 32 37 17 20 1016.5 1016.2 0.0
20/01:30am 18.9 15.4 16.5 86 1.4 NW 30 35 16 19 1016.6 1016.3 0.0
20/01:00am 19.1 15.9 16.3 84 1.7 NW 28 35 15 19 1016.5 1016.2 0.0
20/12:30am 19.9 16.1 16.7 82 1.9 NNW 32 39 17 21 1017.0 1016.7 0.0
20/12:00am 19.9 15.9 16.3 80 2.2 NNW 32 37 17 20 1016.8 1016.5 0.0
 
Date/Time
EST
Temp
°C
App
Temp
°C
Dew
Point
°C
Rel
Hum
%
Delta-T
°C
Wind Press
QNH
hPa
Press
MSL
hPa
Rain since
9am
mm
Dir  Spd
km/h
Gust
km/h
Spd
kts
Gust
kts
19/11:30pm 20.0 16.8 16.4 80 2.2 NNW 28 35 15 19 1017.0 1016.7 0.0
19/11:00pm 20.0 16.8 16.4 80 2.2 NNW 28 35 15 19 1017.5 1017.2 0.0
19/10:30pm 20.2 17.6 16.8 81 2.1 NNW 26 32 14 17 1017.8 1017.5 0.0
19/10:00pm 20.4 17.4 16.8 80 2.2 NNW 28 35 15 19 1018.1 1017.8 0.0
19/09:30pm 20.4 17.7 16.6 79 2.3 N 26 35 14 19 1018.6 1018.3 0.0
19/09:00pm 20.4 17.2 16.4 78 2.4 N 28 39 15 21 1018.9 1018.6 0.0
19/08:30pm 20.4 17.9 16.2 77 2.5 N 24 35 13 19 1018.7 1018.4 0.0
19/08:00pm 20.4 17.8 15.8 75 2.7 N 24 37 13 20 1018.7 1018.4 0.0
19/07:30pm 20.5 17.5 15.9 75 2.8 N 26 39 14 21 1018.8 1018.5 0.0
19/07:00pm 20.7 18.9 16.1 75 2.8 N 20 32 11 17 1018.5 1018.2 0.0
19/06:30pm 20.8 18.3 16.2 75 2.8 N 24 33 13 18 1018.1 1017.8 0.0
19/06:00pm 21.0 19.4 16.4 75 2.8 N 20 35 11 19 1017.9 1017.6 0.0
19/05:30pm 21.0 18.9 16.2 74 2.9 N 22 32 12 17 1017.4 1017.1 0.0
19/05:00pm 21.4 20.3 17.4 78 2.5 N 19 37 10 20 1017.8 1017.5 0.0
19/04:30pm 21.6 20.3 17.2 76 2.7 N 20 37 11 20 1017.1 1016.8 0.0
19/04:00pm 21.9 20.4 16.8 73 3.1 N 20 37 11 20 1017.6 1017.3 0.0
19/03:30pm 22.4 20.2 16.9 71 3.4 N 24 39 13 21 1017.6 1017.3 0.0
19/03:00pm 24.1 20.0 17.4 66 4.2 NNE 35 41 19 22 1017.0 1016.7 0.0
19/02:30pm 24.4 19.5 16.4 61 4.9 NNE 37 43 20 23 1017.5 1017.2 0.0
19/02:00pm 25.2 21.1 16.4 58 5.4 NNE 33 37 18 20 1018.1 1017.8 0.0
19/01:30pm 25.8 22.6 16.4 56 5.8 NNE 28 32 15 17 1018.9 1018.6 0.0
19/01:00pm 25.8 23.4 16.4 56 5.8 NNE 24 32 13 17 1019.5 1019.2 0.0
19/12:30pm 26.4 24.8 16.1 53 6.3 NNE 19 24 10 13 1020.0 1019.7 0.0
19/12:00pm 26.4 25.3 16.3 53 6.2 NNE 17 20 9 11 1020.3 1020.0 0.0
19/11:30am 25.7 26.2 16.5 56 5.7 N 9 19 5 10 1021.1 1020.9 0.0
19/11:00am 24.9 25.6 16.1 58 5.4 N 7 11 4 6 1021.8 1021.6 0.0
19/10:30am 24.7 25.3 15.9 58 5.4 N 7 17 4 9 1022.1 1021.9 0.0
19/10:00am 23.6 22.8 15.1 59 5.1 N 13 17 7 9 1022.4 1022.2 0.0
19/09:30am 22.8 21.9 14.9 61 4.7 NNW 13 20 7 11 1022.6 1022.4 0.0
19/09:00am 21.5 20.4 14.4 64 4.2 NNW 13 19 7 10 1022.9 1022.7 0.0
19/08:30am 21.2 20.4 13.9 63 4.2 N 11 17 6 9 1022.8 1022.6 0.0
19/08:00am 21.0 20.5 13.9 64 4.1 N 9 13 5 7 1022.7 1022.5 0.0
19/07:30am 20.4 20.4 14.1 67 3.7 NNW 7 11 4 6 1022.7 1022.5 0.0
19/07:00am 19.0 19.0 13.6 71 3.1 NNW 6 11 3 6 1022.5 1022.3 0.0
19/06:30am 17.9 16.9 13.4 75 2.6 NW 11 13 6 7 1022.2 1022.0 0.0
19/06:00am 17.5 16.2 13.6 78 2.2 NNW 13 15 7 8 1022.1 1021.9 0.0
19/05:30am 17.2 16.2 13.5 79 2.1 NW 11 13 6 7 1022.0 1021.8 0.0
19/05:00am 17.3 15.9 13.4 78 2.2 NNW 13 15 7 8 1021.8 1021.6 0.0
19/04:30am 17.2 15.8 13.5 79 2.1 NW 13 15 7 8 1021.6 1021.4 0.0
19/04:00am 17.2 16.0 13.9 81 1.9 NW 13 15 7 8 1021.6 1021.4 0.0
19/03:30am 17.0 16.0 13.5 80 2.0 WNW 11 13 6 7 1021.5 1021.3 0.0
19/03:00am 17.4 16.9 13.7 79 2.1 WNW 9 11 5 6 1021.8 1021.6 0.0
19/02:30am 17.8 16.1 13.5 76 2.4 NNW 15 17 8 9 1022.3 1022.1 0.0
19/02:00am 17.7 16.9 12.8 73 2.7 NNE 9 17 5 9 1022.6 1022.4 0.0
19/01:30am 17.9 17.4 12.8 72 2.9 NNE 7 15 4 8 1022.7 1022.5 0.0
19/01:00am 18.1 15.8 13.0 72 2.9 NNE 17 24 9 13 1023.1 1022.9 0.0
19/12:30am 18.0 15.6 12.5 70 3.1 NE 17 22 9 12 1023.3 1023.1 0.0
19/12:00am 18.0 15.7 12.9 72 2.9 NE 17 24 9 13 1023.5 1023.3 0.0
 
Date/Time
EST
Temp
°C
App
Temp
°C
Dew
Point
°C
Rel
Hum
%
Delta-T
°C
Wind Press
QNH
hPa
Press
MSL
hPa
Rain since
9am
mm
Dir  Spd
km/h
Gust
km/h
Spd
kts
Gust
kts
18/11:30pm 18.3 16.5 13.2 72 2.9 NE 15 20 8 11 1023.7 1023.5 0.0
18/11:00pm 18.1 16.5 12.8 71 3.0 NE 13 19 7 10 1023.7 1023.5 0.0
18/10:30pm 18.6 17.1 13.0 70 3.2 ENE 13 20 7 11 1023.9 1023.7 0.0
18/10:00pm 18.6 16.3 13.0 70 3.2 ENE 17 24 9 13 1024.2 1024.0 0.0
18/09:30pm 18.8 16.1 13.0 69 3.3 E 19 24 10 13 1024.5 1024.2 0.0
18/09:00pm 18.7 16.1 13.1 70 3.2 E 19 26 10 14 1024.4 1024.1 0.0
18/08:30pm 18.6 15.7 13.0 70 3.2 E 20 24 11 13 1024.1 1023.9 0.0
18/08:00pm 18.6 16.2 12.8 69 3.3 E 17 22 9 12 1024.0 1023.8 0.0
18/07:30pm 18.6 15.8 12.6 68 3.4 E 19 24 10 13 1024.1 1023.9 0.0
18/07:00pm 18.7 15.9 12.5 67 3.5 E 19 22 10 12 1023.9 1023.7 0.0
18/06:30pm 18.8 16.3 12.3 66 3.6 E 17 22 9 12 1023.7 1023.5 0.0
18/06:00pm 18.9 16.5 12.6 67 3.5 E 17 22 9 12 1023.5 1023.3 0.0
18/05:30pm 19.2 16.8 12.7 66 3.7 ESE 17 22 9 12 1023.3 1023.1 0.0
18/05:00pm 19.6 17.3 11.9 61 4.3 ESE 15 20 8 11 1023.2 1023.0 0.0
18/04:30pm 20.2 17.9 11.7 58 4.7 E 15 20 8 11 1023.0 1022.8 0.0
18/04:00pm 20.8 17.7 11.7 56 5.1 E 19 22 10 12 1022.9 1022.7 0.0
18/03:30pm 21.5 18.4 12.1 55 5.3 E 20 24 11 13 1022.8 1022.6 0.0
18/03:00pm 21.3 18.1 11.9 55 5.3 E 20 24 11 13 1023.0 1022.8 0.0
18/02:30pm 21.3 17.9 12.4 57 5.0 ESE 22 28 12 15 1023.2 1023.0 0.0
18/02:00pm 21.4 18.2 12.0 55 5.3 ESE 20 24 11 13 1023.5 1023.3 0.0
18/01:30pm 22.1 18.4 11.5 51 5.9 E 22 26 12 14 1023.9 1023.7 0.0
18/01:00pm 22.4 18.8 11.8 51 6.0 ESE 22 26 12 14 1024.2 1024.0 0.0
18/12:30pm 22.2 18.1 12.7 55 5.4 ESE 26 30 14 16 1024.8 1024.5 0.0
18/12:00pm 21.9 17.3 12.2 54 5.5 ESE 28 33 15 18 1025.1 1024.8 0.0
18/11:30am 22.3 17.6 13.1 56 5.3 ESE 30 35 16 19 1025.6 1025.3 0.0
18/11:00am 22.9 18.3 12.2 51 6.1 ESE 28 33 15 18 1026.0 1025.7 0.0
18/10:30am 22.6 18.1 13.7 57 5.2 ESE 30 35 16 19 1026.4 1026.1 0.0
18/10:00am 22.3 17.9 12.8 55 5.4 ESE 28 33 15 18 1026.6 1026.3 0.0
18/09:30am 22.1 17.6 12.6 55 5.4 SE 28 33 15 18 1026.8 1026.5 0.0
18/09:00am 21.7 16.9 12.8 57 5.1 ESE 30 35 16 19 1026.9 1026.6 0.0
18/08:30am 21.2 15.9 12.6 58 4.9 ESE 32 37 17 20 1026.8 1026.5 0.0
18/08:00am 21.3 16.5 13.0 59 4.7 ESE 30 37 16 20 1026.6 1026.3 0.0

Other Formats:

Comma delimited format used in spreadsheet applications
http://www.bom.gov.au/fwo/IDQ60801/IDQ60801.94584.axf

JavaScript Object Notation format (JSON) in row-major order
http://www.bom.gov.au/fwo/IDQ60801/IDQ60801.94584.json